Time;durP1;ratioP1;P1;durP2;ratioP2;P2;SDS_P1;SDS_P2;PMS_P1;PMS_P2;Temp;Humidity;BMP_temperature;BMP_pressure;BME280_temperature;BME280_humidity;BME280_pressure;Samples;Min_cycle;Max_cycle;Signal;HPM_P1;HPM_P2
2022/04/13 00:00:30;;;;;;;;;2.33;1.00;;;;;16.83;100.00;100807.44;6333447;22;45237;-95
2022/04/13 00:02:56;;;;;;;;;1.00;1.00;;;;;16.83;100.00;100812.72;6308885;22;45500;-94
2022/04/13 00:05:22;;;;;;;;;2.33;1.00;;;;;16.79;100.00;100808.25;6331769;22;46765;-94
2022/04/13 00:07:47;;;;;;;;;2.00;1.00;;;;;16.83;100.00;100818.94;6307666;22;45186;-93
2022/04/13 00:10:13;;;;;;;;;1.67;1.00;;;;;16.74;100.00;100806.41;6306425;22;45359;-93
2022/04/13 00:12:39;;;;;;;;;2.00;2.00;;;;;16.75;100.00;100816.13;6334141;22;45210;-94
2022/04/13 00:15:08;;;;;;;;;1.00;1.00;;;;;16.85;100.00;100840.19;6332909;22;47267;-93
2022/04/13 00:17:36;;;;;;;;;1.33;1.33;;;;;16.79;100.00;100825.03;6306928;22;45455;-95
2022/04/13 00:20:12;;;;;;;;;2.00;2.00;;;;;16.85;100.00;100841.06;6308046;22;45363;-96
2022/04/13 00:22:37;;;;;;;;;1.00;1.00;;;;;16.81;100.00;100827.72;6334452;22;45233;-96
2022/04/13 00:25:03;;;;;;;;;1.00;1.00;;;;;16.82;100.00;100826.88;6332876;22;47688;-93
2022/04/13 00:27:28;;;;;;;;;2.67;2.00;;;;;16.80;100.00;100825.94;6307651;22;45386;-95
2022/04/13 00:29:54;;;;;;;;;1.33;1.33;;;;;16.75;100.00;100831.16;6307859;22;45359;-93
2022/04/13 00:32:22;;;;;;;;;4.00;4.00;;;;;16.72;100.00;100833.72;6308028;22;45500;-94
2022/04/13 00:34:47;;;;;;;;;2.00;2.00;;;;;16.69;100.00;100829.25;6334069;22;48065;-96
2022/04/13 00:37:12;;;;;;;;;1.00;1.00;;;;;16.60;100.00;100816.69;6332224;22;45332;-93
2022/04/13 00:39:38;;;;;;;;;4.00;3.00;;;;;16.67;100.00;100822.13;6307876;22;45431;-94
2022/04/13 00:42:06;;;;;;;;;2.67;1.67;;;;;16.72;100.00;100841.69;6334307;22;45476;-94
2022/04/13 00:44:32;;;;;;;;;2.33;0.00;;;;;16.64;100.00;100825.63;6333979;22;47905;-94
2022/04/13 00:47:01;;;;;;;;;1.33;1.33;;;;;16.71;100.00;100837.22;6333800;22;45286;-94
2022/04/13 00:49:27;;;;;;;;;3.33;2.33;;;;;16.74;100.00;100832.00;6308770;22;45361;-94
2022/04/13 00:51:53;;;;;;;;;2.67;1.33;;;;;16.77;100.00;100832.06;6334875;22;45405;-95
2022/04/13 00:54:25;;;;;;;;;1.67;1.67;;;;;16.77;100.00;100833.81;6332352;22;47269;-94
2022/04/13 00:56:55;;;;;;;;;1.00;1.00;;;;;16.66;100.00;100807.09;6308533;22;45467;-95
2022/04/13 00:59:23;;;;;;;;;3.33;2.33;;;;;16.68;100.00;100813.31;6335053;22;45343;-95
2022/04/13 01:01:49;;;;;;;;;3.00;2.33;;;;;16.71;100.00;100810.72;6308416;22;45352;-95
2022/04/13 01:04:16;;;;;;;;;1.33;1.00;;;;;16.71;100.00;100798.38;6334062;22;46963;-94
2022/04/13 01:06:43;;;;;;;;;2.00;2.00;;;;;16.82;100.00;100809.22;6333764;22;45703;-94
2022/04/13 01:09:11;;;;;;;;;1.00;1.00;;;;;16.74;100.00;100787.84;6307583;22;45322;-94
2022/04/13 01:11:37;;;;;;;;;4.67;1.33;;;;;16.78;100.00;100810.00;6308404;22;45134;-94
2022/04/13 01:14:02;;;;;;;;;2.67;2.00;;;;;16.72;100.00;100804.56;6334809;22;48224;-95
2022/04/13 01:16:28;;;;;;;;;3.00;2.00;;;;;16.63;100.00;100799.97;6307692;22;45420;-94
2022/04/13 01:18:56;;;;;;;;;1.00;1.00;;;;;16.64;100.00;100799.13;6308311;22;45634;-94
2022/04/13 01:21:45;;;;;;;;;1.00;1.00;;;;;16.81;100.00;100833.00;6308504;22;45384;-94
2022/04/13 01:24:12;;;;;;;;;4.67;1.00;;;;;16.77;100.00;100826.78;6309408;22;46926;-94
2022/04/13 01:26:38;;;;;;;;;4.00;1.00;;;;;16.63;100.00;100810.56;6336265;22;45794;-95
2022/04/13 01:29:04;;;;;;;;;2.67;2.00;;;;;16.69;100.00;100826.59;6309375;22;45328;-95
2022/04/13 01:31:31;;;;;;;;;0.67;0.67;;;;;16.59;100.00;100822.88;6309796;22;45248;-95
2022/04/13 01:33:57;;;;;;;;;2.00;2.00;;;;;16.62;100.00;100833.50;6309974;22;48105;-95
2022/04/13 01:36:23;;;;;;;;;3.00;2.00;;;;;16.55;100.00;100828.94;6309072;22;45706;-94
2022/04/13 01:38:48;;;;;;;;;4.00;1.00;;;;;16.57;100.00;100829.88;6305091;22;45423;-95
2022/04/13 01:41:14;;;;;;;;;1.00;1.00;;;;;16.48;100.00;100817.34;6297993;22;45406;-94
2022/04/13 01:43:39;;;;;;;;;2.67;2.00;;;;;16.65;100.00;100848.59;6278291;22;48192;-94
2022/04/13 01:46:07;;;;;;;;;2.33;2.33;;;;;16.62;100.00;100841.47;6303809;22;45358;-96
2022/04/13 01:48:35;;;;;;;;;1.67;1.67;;;;;16.50;100.00;100817.34;6303865;22;45387;-95
2022/04/13 01:51:00;;;;;;;;;2.00;0.67;;;;;16.52;100.00;100820.91;6277626;22;45360;-96
2022/04/13 01:53:26;;;;;;;;;1.00;1.00;;;;;16.54;100.00;100813.94;6303824;22;48384;-94
2022/04/13 01:55:55;;;;;;;;;1.00;1.00;;;;;16.59;100.00;100821.97;6302195;22;45579;-95
2022/04/13 01:58:21;;;;;;;;;2.33;2.00;;;;;16.68;100.00;100843.34;6303418;22;45548;-95
2022/04/13 02:00:53;;;;;;;;;2.00;2.00;;;;;16.61;100.00;100825.53;6303891;22;45589;-96
2022/04/13 02:03:20;;;;;;;;;1.00;1.00;;;;;16.59;100.00;100830.81;6277716;22;46906;-94
2022/04/13 02:05:46;;;;;;;;;6.33;2.33;;;;;16.67;100.00;100852.19;6277029;22;45513;-94
2022/04/13 02:08:12;;;;;;;;;3.00;3.00;;;;;16.59;100.00;100838.78;6302814;22;45268;-95
2022/04/13 02:10:37;;;;;;;;;1.00;1.00;;;;;16.53;100.00;100839.53;6303529;22;45287;-94
2022/04/13 02:13:03;;;;;;;;;3.00;2.00;;;;;16.60;100.00;100839.63;6303863;22;48111;-96
2022/04/13 02:15:28;;;;;;;;;2.67;2.00;;;;;16.57;100.00;100835.16;6302347;22;45896;-94
2022/04/13 02:17:54;;;;;;;;;2.00;2.00;;;;;16.67;100.00;100849.53;6277867;22;45362;-94
2022/04/13 02:20:19;;;;;;;;;2.00;1.00;;;;;16.72;100.00;100854.94;6277356;22;45221;-95
2022/04/13 02:22:46;;;;;;;;;1.33;1.33;;;;;16.68;100.00;100845.09;6303066;22;47058;-95
2022/04/13 02:25:12;;;;;;;;;1.00;1.00;;;;;16.71;100.00;100835.47;6303368;22;45878;-95
2022/04/13 02:27:37;;;;;;;;;1.00;1.00;;;;;16.63;100.00;100824.72;6304687;22;45353;-95
2022/04/13 02:30:04;;;;;;;;;2.00;2.00;;;;;16.61;100.00;100804.34;6277978;22;45465;-93
2022/04/13 02:32:29;;;;;;;;;2.67;2.67;;;;;16.52;100.00;100807.69;6303252;22;47273;-95
2022/04/13 02:34:54;;;;;;;;;2.00;2.00;;;;;16.45;100.00;100787.22;6303280;22;45591;-93
2022/04/13 02:37:20;;;;;;;;;1.67;1.67;;;;;16.35;100.00;100772.88;6302630;22;45341;-93
2022/04/13 02:39:45;;;;;;;;;1.67;1.67;;;;;16.23;100.00;100755.88;6309108;22;45410;-92
2022/04/13 02:42:17;;;;;;;;;3.33;3.00;;;;;16.21;100.00;100762.88;6335947;22;45365;-92
2022/04/13 02:44:42;;;;;;;;;2.00;2.00;;;;;16.11;100.00;100751.19;6335499;22;45445;-92
2022/04/13 02:47:08;;;;;;;;;3.00;2.00;;;;;16.07;100.00;100729.06;6307416;22;45253;-92
2022/04/13 02:49:33;;;;;;;;;2.00;2.00;;;;;15.99;100.00;100706.78;6334601;22;45329;-94
2022/04/13 02:51:58;;;;;;;;;3.00;3.00;;;;;15.94;100.00;100700.47;6334022;22;47023;-94
2022/04/13 02:54:24;;;;;;;;;4.00;3.00;;;;;15.96;100.00;100699.66;6333812;22;45407;-93
2022/04/13 02:56:49;;;;;;;;;2.00;2.00;;;;;15.91;100.00;100685.41;6308383;22;45376;-93
2022/04/13 02:59:14;;;;;;;;;4.67;2.00;;;;;15.88;100.00;100684.44;6307357;22;45571;-93
2022/04/13 03:01:42;;;;;;;;;4.33;3.00;;;;;15.77;100.00;100652.47;6308257;22;47035;-92
2022/04/13 03:04:07;;;;;;;;;1.33;1.33;;;;;15.86;100.00;100668.53;6334149;22;45314;-93
2022/04/13 03:06:33;;;;;;;;;2.33;2.33;;;;;15.80;100.00;100648.13;6334745;22;45206;-93
2022/04/13 03:08:58;;;;;;;;;5.00;2.67;;;;;15.75;100.00;100644.47;6335018;22;45457;-93
2022/04/13 03:11:24;;;;;;;;;2.00;2.00;;;;;15.72;100.00;100647.09;6335056;22;48360;-93
2022/04/13 03:13:49;;;;;;;;;2.00;2.00;;;;;15.74;100.00;100646.25;6334642;22;45304;-94
2022/04/13 03:16:14;;;;;;;;;3.33;2.67;;;;;15.66;100.00;100639.00;6334912;22;45383;-94
2022/04/13 03:18:40;;;;;;;;;3.00;3.00;;;;;15.71;100.00;100646.19;6335182;22;45304;-93
2022/04/13 03:21:05;;;;;;;;;4.33;3.00;;;;;15.64;100.00;100650.41;6334851;22;48122;-93
2022/04/13 03:23:30;;;;;;;;;4.33;3.00;;;;;15.60;100.00;100645.94;6334425;22;45534;-93
2022/04/13 03:25:56;;;;;;;;;2.67;2.67;;;;;15.60;100.00;100647.69;6320601;22;45405;-94
2022/04/13 03:28:23;;;;;;;;;4.00;3.00;;;;;15.67;100.00;100660.19;6365000;22;44721;-94
2022/04/13 03:30:50;;;;;;;;;3.00;3.00;;;;;15.58;100.00;100645.00;6337134;22;47039;-93
2022/04/13 03:33:16;;;;;;;;;6.67;4.00;;;;;15.61;100.00;100654.75;6362435;22;44868;-92
2022/04/13 03:35:42;;;;;;;;;4.00;3.00;;;;;15.58;100.00;100642.34;6352001;22;45217;-94
2022/04/13 03:38:07;;;;;;;;;3.00;3.00;;;;;15.53;100.00;100634.31;6336013;22;45474;-94
2022/04/13 03:40:32;;;;;;;;;2.33;2.33;;;;;15.50;100.00;100622.75;6308640;22;46905;-95
2022/04/13 03:42:58;;;;;;;;;4.00;4.00;;;;;15.54;100.00;100603.44;6309176;22;46059;-95
2022/04/13 03:45:23;;;;;;;;;3.33;3.33;;;;;15.47;100.00;100594.50;6307955;22;45360;-95
2022/04/13 03:47:48;;;;;;;;;5.00;2.33;;;;;15.45;100.00;100590.03;6335070;22;45296;-95
2022/04/13 03:50:14;;;;;;;;;4.00;4.00;;;;;15.43;100.00;100597.03;6334765;22;47445;-96
2022/04/13 03:52:39;;;;;;;;;3.33;3.00;;;;;15.46;100.00;100597.13;6308840;22;45269;-95
2022/04/13 03:55:07;;;;;;;;;7.00;4.67;;;;;15.39;100.00;100585.47;6309331;22;45351;-96
2022/04/13 03:57:33;;;;;;;;;3.00;3.00;;;;;15.46;100.00;100602.41;6335433;22;45402;-96
2022/04/13 03:59:58;;;;;;;;;3.33;3.00;;;;;15.39;100.00;100594.31;6334656;22;48040;-95
2022/04/13 04:02:24;;;;;;;;;4.33;3.00;;;;;15.41;100.00;100597.00;6308398;22;45623;-96
2022/04/13 04:04:49;;;;;;;;;5.67;4.00;;;;;15.30;100.00;100563.28;6308702;22;45385;-94
2022/04/13 04:07:16;;;;;;;;;5.00;3.67;;;;;15.32;100.00;100549.19;6308633;22;45447;-95
2022/04/13 04:09:42;;;;;;;;;4.00;4.00;;;;;15.40;100.00;100571.41;6334846;22;48103;-94
2022/04/13 04:12:08;;;;;;;;;9.33;6.67;;;;;15.42;100.00;100572.34;6308531;22;45282;-95
2022/04/13 04:14:34;;;;;;;;;4.67;4.00;;;;;15.28;100.00;100550.88;6308163;22;45332;-95
2022/04/13 04:16:59;;;;;;;;;4.33;3.00;;;;;15.37;100.00;100561.66;6334315;22;45311;-94
2022/04/13 04:19:24;;;;;;;;;4.00;4.00;;;;;15.25;100.00;100534.94;6308563;22;47107;-96
2022/04/13 04:21:51;;;;;;;;;4.00;4.00;;;;;15.32;100.00;100551.81;6337105;22;45300;-95
2022/04/13 04:24:16;;;;;;;;;7.00;5.67;;;;;15.29;100.00;100552.66;6335602;22;45412;-95
2022/04/13 04:26:43;;;;;;;;;5.67;5.67;;;;;15.36;100.00;100567.78;6335152;22;45337;-95
2022/04/13 04:29:09;;;;;;;;;3.00;3.00;;;;;15.32;100.00;100554.47;6308189;22;46193;-94
2022/04/13 04:34:21;;;;;;;;;4.33;4.33;;;;;15.33;100.00;100545.69;6336080;22;45428;-93
2022/04/13 04:36:46;;;;;;;;;7.33;4.33;;;;;15.33;100.00;100537.75;6307956;22;45438;-95
2022/04/13 04:39:12;;;;;;;;;7.33;6.00;;;;;15.32;100.00;100541.25;6308011;22;48022;-94
2022/04/13 04:41:40;;;;;;;;;5.00;4.33;;;;;15.26;100.00;100528.78;6334915;22;45275;-94
2022/04/13 04:44:06;;;;;;;;;6.00;6.00;;;;;15.25;100.00;100525.25;6308124;22;45318;-93
2022/04/13 04:46:31;;;;;;;;;6.00;4.67;;;;;15.23;100.00;100521.66;6333261;22;45467;-95
2022/04/13 04:48:56;;;;;;;;;7.33;6.00;;;;;15.26;100.00;100528.78;6334522;22;47044;-94
2022/04/13 04:51:23;;;;;;;;;6.00;1.00;;;;;15.20;100.00;100521.63;6334325;22;44995;-94
2022/04/13 04:53:48;;;;;;;;;5.00;4.00;;;;;15.32;100.00;100543.91;6307738;22;45387;-94
2022/04/13 04:56:17;;;;;;;;;4.00;4.00;;;;;15.30;100.00;100536.84;6335128;22;45428;-93
2022/04/13 04:58:42;;;;;;;;;4.00;2.67;;;;;15.18;100.00;100511.00;6335737;22;47353;-94
2022/04/13 05:01:09;;;;;;;;;7.67;7.67;;;;;15.25;100.00;100524.38;6309010;22;45274;-94
2022/04/13 05:03:34;;;;;;;;;6.00;5.33;;;;;15.11;100.00;100501.16;6335856;22;45413;-95
2022/04/13 05:06:00;;;;;;;;;6.33;5.67;;;;;15.13;100.00;100499.41;6309090;22;45267;-95
2022/04/13 05:08:25;;;;;;;;;5.67;5.00;;;;;15.17;100.00;100516.25;6335968;22;48316;-94
2022/04/13 05:10:51;;;;;;;;;5.33;5.33;;;;;15.08;100.00;100512.53;6309423;22;45539;-94
2022/04/13 05:13:20;;;;;;;;;5.00;5.00;;;;;15.18;100.00;100526.84;6309770;22;45442;-95
2022/04/13 05:15:46;;;;;;;;;9.00;7.00;;;;;15.13;100.00;100525.84;6309061;22;45413;-94
2022/04/13 05:18:12;;;;;;;;;8.33;6.00;;;;;15.13;100.00;100520.56;6309169;22;47807;-95
2022/04/13 05:20:39;;;;;;;;;8.00;6.00;;;;;15.14;100.00;100514.44;6307721;22;45151;-93
2022/04/13 05:23:05;;;;;;;;;7.33;6.33;;;;;15.17;100.00;100510.97;6335316;22;45394;-93
2022/04/13 05:25:30;;;;;;;;;9.00;6.00;;;;;15.14;100.00;100506.50;6309301;22;45422;-94
2022/04/13 05:27:55;;;;;;;;;4.67;4.67;;;;;15.19;100.00;100514.53;6310172;22;46934;-94
2022/04/13 05:30:21;;;;;;;;;8.00;5.00;;;;;15.16;100.00;100499.50;6334632;22;45772;-94
2022/04/13 05:32:56;;;;;;;;;4.00;4.00;;;;;15.25;100.00;100512.03;6309483;22;45388;-93
2022/04/13 05:35:23;;;;;;;;;5.00;5.00;;;;;15.14;100.00;100485.34;6309297;22;45529;-93
2022/04/13 05:37:49;;;;;;;;;9.33;7.33;;;;;15.17;100.00;100496.00;6334731;22;47271;-94
2022/04/13 05:40:15;;;;;;;;;8.33;6.33;;;;;15.24;100.00;100501.41;6308306;22;45492;-94
2022/04/13 05:42:40;;;;;;;;;8.33;4.67;;;;;15.27;100.00;100505.03;6309484;22;45338;-94
2022/04/13 05:45:07;;;;;;;;;7.00;5.00;;;;;15.28;100.00;100506.81;6334346;22;45363;-94
2022/04/13 05:47:32;;;;;;;;;7.00;7.00;;;;;15.25;100.00;100503.22;6335052;22;47615;-94
2022/04/13 05:49:58;;;;;;;;;10.00;6.00;;;;;15.25;100.00;100504.13;6308947;22;45646;-94
2022/04/13 05:52:24;;;;;;;;;6.67;6.33;;;;;15.33;100.00;100512.22;6334974;22;45630;-95
2022/04/13 05:54:49;;;;;;;;;8.33;6.00;;;;;15.30;100.00;100505.09;6309605;22;45407;-95
2022/04/13 05:57:15;;;;;;;;;10.33;8.00;;;;;15.33;100.00;100498.09;6309232;22;47902;-94
2022/04/13 05:59:40;;;;;;;;;5.00;5.00;;;;;15.37;100.00;100503.47;6309315;22;45174;-94
2022/04/13 06:02:06;;;;;;;;;9.00;6.67;;;;;15.24;100.00;100490.84;6309465;22;45349;-94
2022/04/13 06:04:32;;;;;;;;;6.00;6.00;;;;;15.29;100.00;100505.94;6335392;22;45422;-94
2022/04/13 06:06:59;;;;;;;;;5.67;5.67;;;;;15.38;100.00;100534.38;6335129;22;47227;-94
2022/04/13 06:09:25;;;;;;;;;9.00;7.00;;;;;15.34;100.00;100526.31;6308509;22;45553;-95
2022/04/13 06:11:50;;;;;;;;;8.33;6.00;;;;;15.39;100.00;100532.59;6309355;22;45622;-95
2022/04/13 06:14:16;;;;;;;;;11.00;7.00;;;;;15.40;100.00;100539.69;6309167;22;45400;-94
2022/04/13 06:16:42;;;;;;;;;5.67;5.33;;;;;15.43;100.00;100537.09;6335263;22;47324;-95
2022/04/13 06:19:08;;;;;;;;;7.33;7.33;;;;;15.46;100.00;100538.94;6312594;22;45424;-94
2022/04/13 06:21:33;;;;;;;;;11.00;7.00;;;;;15.50;100.00;100544.31;6309199;22;45372;-94
2022/04/13 06:23:58;;;;;;;;;8.33;8.33;;;;;15.48;100.00;100531.91;6336018;22;45247;-84
2022/04/13 06:26:24;;;;;;;;;15.00;11.67;;;;;15.51;100.00;100542.56;6334070;22;46687;-84
2022/04/13 06:28:49;;;;;;;;;10.67;10.67;;;;;15.52;100.00;100544.34;6333065;22;45256;-83
2022/04/13 06:31:14;;;;;;;;;9.33;8.33;;;;;15.55;100.00;100544.41;6333021;22;57046;-83
2022/04/13 06:33:40;;;;;;;;;9.00;7.67;;;;;15.55;100.00;100541.75;6333774;22;45505;-82
2022/04/13 06:36:06;;;;;;;;;10.33;8.33;;;;;15.53;100.00;100540.84;6332715;22;45642;-88
2022/04/13 06:38:32;;;;;;;;;13.67;8.00;;;;;15.55;100.00;100551.44;6304728;22;45261;-83
2022/04/13 06:40:57;;;;;;;;;6.33;6.33;;;;;15.55;100.00;100556.72;6332206;22;45293;-83
2022/04/13 06:43:22;;;;;;;;;10.67;9.33;;;;;15.59;100.00;100558.59;6332505;22;45302;-83
2022/04/13 06:45:48;;;;;;;;;11.00;10.00;;;;;15.58;100.00;100557.69;6329868;22;57225;-84
2022/04/13 06:48:13;;;;;;;;;8.67;7.33;;;;;15.62;100.00;100562.19;6330407;22;56536;-83
2022/04/13 06:50:38;;;;;;;;;11.67;9.00;;;;;15.64;100.00;100560.47;6303726;22;52219;-83
2022/04/13 06:53:04;;;;;;;;;7.67;7.00;;;;;15.66;100.00;100564.91;6331019;22;45250;-84
2022/04/13 06:55:29;;;;;;;;;5.67;5.67;;;;;15.68;100.00;100565.81;6326999;22;46330;-84
2022/04/13 06:57:55;;;;;;;;;10.00;10.00;;;;;15.66;100.00;100564.91;6301390;22;45590;-83
2022/04/13 07:00:20;;;;;;;;;12.00;9.33;;;;;15.71;100.00;100582.69;6331187;22;45431;-83
2022/04/13 07:02:46;;;;;;;;;11.33;10.00;;;;;15.73;100.00;100585.34;6304346;22;45401;-83
2022/04/13 07:05:11;;;;;;;;;10.67;8.67;;;;;15.71;100.00;100582.69;6302762;22;47002;-84
2022/04/13 07:07:37;;;;;;;;;11.67;11.67;;;;;15.74;100.00;100589.78;6332055;22;45569;-83
2022/04/13 07:10:03;;;;;;;;;7.00;7.00;;;;;15.77;100.00;100610.13;6303905;22;45337;-83
2022/04/13 07:12:36;;;;;;;;;13.00;11.33;;;;;15.77;100.00;100610.13;6304268;22;45413;-84
2022/04/13 07:15:02;;;;;;;;;11.67;11.67;;;;;15.74;100.00;100598.63;6332073;22;45418;-83
2022/04/13 07:17:27;;;;;;;;;10.33;7.67;;;;;15.76;100.00;100603.94;6305283;22;45469;-83
2022/04/13 07:19:53;;;;;;;;;10.67;10.00;;;;;15.78;100.00;100612.78;6334513;22;45519;-84
2022/04/13 07:22:18;;;;;;;;;13.33;12.00;;;;;15.79;100.00;100624.28;6332839;22;45297;-84
2022/04/13 07:24:43;;;;;;;;;8.00;8.00;;;;;15.81;100.00;100618.16;6331541;22;46516;-83
2022/04/13 07:27:09;;;;;;;;;12.67;10.33;;;;;15.79;100.00;100614.59;6331781;22;45540;-83
2022/04/13 07:29:34;;;;;;;;;11.67;9.67;;;;;15.82;100.00;100622.56;6331238;22;45245;-83
2022/04/13 07:31:59;;;;;;;;;11.00;9.00;;;;;15.83;100.00;100616.44;6301244;22;51014;-82
2022/04/13 07:34:25;;;;;;;;;14.67;11.00;;;;;15.86;100.00;100615.59;6329877;22;45541;-83
2022/04/13 07:36:50;;;;;;;;;13.67;9.67;;;;;15.86;100.00;100620.91;6328202;22;45602;-84
2022/04/13 07:39:16;;;;;;;;;12.00;11.67;;;;;15.89;100.00;100618.31;6327600;22;45341;-81
2022/04/13 07:41:41;;;;;;;;;13.33;12.00;;;;;15.91;100.00;100627.19;6331388;22;45312;-81
2022/04/13 07:44:06;;;;;;;;;14.67;13.33;;;;;15.95;100.00;100620.22;6298479;22;46854;-81
2022/04/13 07:46:32;;;;;;;;;14.67;12.00;;;;;15.96;100.00;100619.34;6324872;22;45457;-82
2022/04/13 07:48:57;;;;;;;;;14.00;12.00;;;;;15.97;100.00;100614.09;6330776;22;45400;-82
2022/04/13 07:51:22;;;;;;;;;7.67;7.67;;;;;16.01;100.00;100617.69;6301814;22;45277;-82
2022/04/13 07:53:48;;;;;;;;;13.67;12.00;;;;;16.04;100.00;100625.69;6331118;22;45966;-83
2022/04/13 07:56:14;;;;;;;;;12.00;12.00;;;;;16.10;100.00;100624.97;6328592;22;45403;-82
2022/04/13 07:58:39;;;;;;;;;21.67;18.33;;;;;16.14;100.00;100632.09;6328498;22;45440;-82
2022/04/13 08:01:05;;;;;;;;;17.33;15.33;;;;;16.17;100.00;100623.31;6330464;22;45692;-82
2022/04/13 08:03:31;;;;;;;;;15.00;13.00;;;;;16.19;100.00;100616.31;6331442;22;45356;-82
2022/04/13 08:05:56;;;;;;;;;15.00;14.33;;;;;16.24;100.00;100633.19;6330886;22;45436;-83
2022/04/13 08:08:21;;;;;;;;;13.00;9.67;;;;;16.28;100.00;100632.41;6331241;22;45428;-82
2022/04/13 08:10:47;;;;;;;;;13.00;12.00;;;;;16.36;100.00;100632.53;6328751;22;45476;-82
2022/04/13 08:13:13;;;;;;;;;17.00;16.33;;;;;16.47;100.00;100634.47;6331033;22;45703;-83
2022/04/13 08:15:38;;;;;;;;;16.67;16.67;;;;;16.54;100.00;100641.72;6331045;22;45311;-82
2022/04/13 08:18:03;;;;;;;;;20.00;14.00;;;;;16.57;100.00;100651.47;6331203;22;45988;-82
2022/04/13 08:20:29;;;;;;;;;13.67;11.00;;;;;16.58;100.00;100659.44;6327651;22;45484;-82
2022/04/13 08:22:54;;;;;;;;;13.00;13.00;;;;;16.56;100.00;100669.13;6300908;22;48119;-82
2022/04/13 08:25:20;;;;;;;;;14.00;12.67;;;;;16.54;100.00;100668.19;6333537;22;45644;-82
2022/04/13 08:27:45;;;;;;;;;16.00;11.00;;;;;16.50;100.00;100669.88;6338876;22;45429;-83
2022/04/13 08:30:12;;;;;;;;;8.67;8.00;;;;;16.48;100.00;100670.72;6307823;22;45319;-83
2022/04/13 08:32:37;;;;;;;;;14.67;12.00;;;;;16.46;100.00;100677.75;6305492;22;47051;-83
2022/04/13 08:35:05;;;;;;;;;14.67;13.67;;;;;16.46;100.00;100678.66;6330468;22;45438;-83
2022/04/13 08:37:32;;;;;;;;;14.00;14.00;;;;;16.50;100.00;100682.22;6333706;22;45339;-82
2022/04/13 08:39:57;;;;;;;;;14.00;13.00;;;;;16.49;100.00;100683.13;6305351;22;45412;-83
2022/04/13 08:42:41;;;;;;;;;10.33;10.00;;;;;16.56;100.00;100687.66;6301530;22;46063;-84
2022/04/13 08:45:19;;;;;;;;;16.67;14.67;;;;;16.56;100.00;100682.38;6333072;22;45526;-84
2022/04/13 08:47:47;;;;;;;;;14.33;11.33;;;;;16.58;100.00;100704.47;6304276;22;45329;-85
2022/04/13 08:50:13;;;;;;;;;16.33;13.33;;;;;16.57;100.00;100709.75;6304440;22;45313;-85
2022/04/13 08:52:40;;;;;;;;;12.67;11.67;;;;;16.57;100.00;100694.72;6305364;22;47872;-85
2022/04/13 08:55:06;;;;;;;;;14.67;12.00;;;;;16.59;100.00;100700.09;6334481;22;45320;-85
2022/04/13 08:57:46;;;;;;;;;16.33;12.67;;;;;16.61;100.00;100693.94;6332527;22;45328;-84
2022/04/13 09:00:13;;;;;;;;;13.33;10.00;;;;;16.66;100.00;100699.34;6332179;22;45412;-84
2022/04/13 09:03:09;;;;;;;;;11.33;10.33;;;;;16.70;100.00;100703.81;6334333;22;45357;-84
2022/04/13 09:05:36;;;;;;;;;18.67;13.33;;;;;16.73;100.00;100698.59;6331025;22;45389;-86
2022/04/13 09:08:05;;;;;;;;;16.00;12.00;;;;;16.79;100.00;100697.81;6333954;22;45376;-86
2022/04/13 09:10:31;;;;;;;;;7.67;4.67;;;;;16.82;100.00;100705.81;6330872;22;45195;-85
2022/04/13 09:12:58;;;;;;;;;18.00;13.33;;;;;16.89;100.00;100695.31;6329323;22;45887;-85
2022/04/13 09:15:24;;;;;;;;;13.67;13.67;;;;;16.97;100.00;100693.72;6305597;22;46183;-84
2022/04/13 09:17:51;;;;;;;;;14.67;12.67;;;;;17.07;100.00;100713.31;6334991;22;45298;-85
2022/04/13 09:20:16;;;;;;;;;12.00;12.00;;;;;17.11;100.00;100709.84;6331907;22;45833;-84
2022/04/13 09:22:43;;;;;;;;;18.00;13.00;;;;;17.19;100.00;100710.03;6332537;22;45534;-85
2022/04/13 09:25:09;;;;;;;;;15.33;13.00;;;;;17.24;100.00;100715.44;6331864;22;45321;-85
2022/04/13 09:27:36;;;;;;;;;21.33;16.67;;;;;17.30;100.00;100731.44;6332104;22;45271;-85
2022/04/13 09:30:01;;;;;;;;;18.00;16.67;;;;;17.31;100.00;100749.16;6328202;22;45528;-85
2022/04/13 09:32:28;;;;;;;;;15.33;12.33;;;;;17.32;100.00;100750.91;6304271;22;47153;-85
2022/04/13 09:34:55;;;;;;;;;18.00;16.67;;;;;17.30;100.00;100752.66;6332748;22;45408;-85
2022/04/13 09:37:21;;;;;;;;;18.67;14.67;;;;;17.26;100.00;100748.16;6332608;22;45711;-85
2022/04/13 09:39:46;;;;;;;;;10.33;9.67;;;;;17.27;100.00;100768.50;6334212;22;45278;-85
2022/04/13 09:42:13;;;;;;;;;8.33;6.33;;;;;17.29;100.00;100795.97;6332390;22;46539;-85
2022/04/13 09:44:40;;;;;;;;;7.00;7.00;;;;;17.32;100.00;100809.28;6330776;22;45361;-85
2022/04/13 09:47:07;;;;;;;;;6.67;4.33;;;;;17.39;100.00;100808.56;6330808;22;45817;-86
2022/04/13 09:49:33;;;;;;;;;5.67;5.00;;;;;17.41;100.00;100821.84;6330584;22;45531;-86
2022/04/13 09:51:59;;;;;;;;;12.67;7.00;;;;;17.49;100.00;100836.13;6301633;22;47196;-86
2022/04/13 09:54:25;;;;;;;;;14.00;9.67;;;;;17.57;100.00;100811.50;6329969;22;45726;-86
2022/04/13 09:56:51;;;;;;;;;10.33;7.33;;;;;17.70;100.00;100796.66;6331213;22;45333;-86
2022/04/13 09:59:32;;;;;;;;;12.33;9.00;;;;;17.89;100.00;100786.31;6301577;22;45351;-86
2022/04/13 10:01:58;;;;;;;;;10.00;8.67;;;;;17.99;100.00;100806.84;6329442;22;45597;-84
2022/04/13 10:04:23;;;;;;;;;9.67;8.33;;;;;18.08;100.00;100812.31;6331987;22;45455;-86
2022/04/13 10:06:49;;;;;;;;;8.67;8.67;;;;;18.17;100.00;100840.75;6327692;22;45394;-86
2022/04/13 10:09:14;;;;;;;;;10.00;8.00;;;;;18.18;100.00;100837.25;6303306;22;45420;-87
2022/04/13 10:12:01;;;;;;;;;10.67;7.33;;;;;18.26;100.00;100857.75;6302730;22;47872;-85
2022/04/13 10:14:26;;;;;;;;;13.00;9.33;;;;;18.29;100.00;100863.13;6329853;22;45612;-84
2022/04/13 10:16:55;;;;;;;;;9.00;7.67;;;;;18.28;100.00;100863.97;6328837;22;45291;-84
2022/04/13 10:19:21;;;;;;;;;7.33;7.33;;;;;18.22;100.00;100853.28;6327074;22;45589;-86
2022/04/13 10:21:48;;;;;;;;;8.67;7.00;;;;;18.09;100.00;100853.94;6327148;22;48302;-86
2022/04/13 10:24:52;;;;;;;;;6.00;5.67;;;;;18.04;100.00;100860.94;6331643;22;45363;-86
2022/04/13 10:27:19;;;;;;;;;12.67;7.00;;;;;18.08;100.00;100837.97;6295688;22;45525;-86
2022/04/13 10:29:46;;;;;;;;;11.00;8.00;;;;;18.17;100.00;100853.16;6331062;22;45361;-87
2022/04/13 10:32:14;;;;;;;;;9.67;9.67;;;;;18.21;100.00;100863.00;6331244;22;46088;-90
2022/04/13 10:34:42;;;;;;;;;14.00;11.67;;;;;18.28;100.00;100835.66;6301076;22;45453;-88
2022/04/13 10:37:09;;;;;;;;;10.00;8.00;;;;;18.49;100.00;100846.56;6330074;22;45726;-87
2022/04/13 10:39:35;;;;;;;;;8.67;8.00;;;;;18.69;100.00;100861.88;6330061;22;45470;-87
2022/04/13 10:42:06;;;;;;;;;9.33;8.00;;;;;18.75;100.00;100880.59;6331352;22;45446;-88
2022/04/13 10:44:37;;;;;;;;;8.00;8.00;;;;;18.72;100.00;100876.13;6309909;22;45660;-88
2022/04/13 10:47:09;;;;;;;;;8.00;6.00;;;;;18.75;100.00;100881.50;6337675;22;45171;-88
2022/04/13 10:50:02;;;;;;;;;8.67;7.67;;;;;18.83;100.00;100863.00;6336109;22;45320;-87
2022/04/13 10:52:39;;;;;;;;;5.00;5.00;;;;;18.92;100.00;100842.69;6306838;22;46125;-88
2022/04/13 10:55:09;;;;;;;;;6.00;5.00;;;;;18.98;100.00;100850.75;6332559;22;45299;-90
2022/04/13 10:57:38;;;;;;;;;5.67;5.67;;;;;18.96;100.00;100866.69;6336306;22;45301;-89
2022/04/13 11:00:06;;;;;;;;;6.33;5.00;;;;;18.95;100.00;100906.56;6331248;22;45621;-87
2022/04/13 11:02:49;;;;;;;;;3.00;2.67;;;;;18.91;100.00;100876.38;6306970;22;47290;-87
2022/04/13 11:05:15;;;;;;;;;7.00;4.00;;;;;18.84;100.00;100875.38;6330350;22;45335;-87
2022/04/13 11:07:41;;;;;;;;;3.00;3.00;;;;;18.75;100.00;100889.47;6348912;22;45186;-89
2022/04/13 11:10:14;;;;;;;;;6.00;5.00;;;;;18.77;100.00;100884.16;6346147;22;45320;-88
2022/04/13 11:12:40;;;;;;;;;5.00;5.00;;;;;18.84;100.00;100877.16;6335351;22;46706;-89